Warning: Javascript must be enabled to use all the features on this page!


Page Loading - Please Wait...

Click to hideNews Bulletins

Peak Streamflow for the Nation

USGS 09346400 SAN JUAN RIVER NEAR CARRACAS, CO.

Archuleta County, Colorado
Hydrologic Unit Code 14080101
Latitude  37°00'49", Longitude 107°18'42" NAD27
Drainage area 1,250  square miles
Gage datum 6,090.00 feet above NGVD29
Output formats
Table
Graph
Tab-separated file
peakfq (watstore) format
Reselect output format
Water
Year
Date Gage
Height
(feet)
Stream-
flow
(cfs)
1962 1962-04-20 5.552 3,920
1963 1963-05-09 4.68 2,310
1964 1964-05-24 5.40 3,650
1965 1965-05-22 6.852 6,120
1966 1966-05-08 5.42 3,650
1967 1966-12-07 5.51 3,620
1968 1968-08-10 6.37 5,370
1969 1969-05-22 5.40 3,550
1970 1970-09-06 8.34 9,730
1971 1971-09-30 4.35 2,220
1972 1972-05-21   1,2101
1973 1972-10-20 7.12 7,690
1974 1974-05-11 4.05 1,780
1975 1975-06-07 6.20 5,120
1976 1976-06-06 5.01 2,880
1977 1977-08-18 4.36 2,070
1978 1978-05-16 5.40 3,510
1979 1979-04-19 7.40 7,630
1980 1980-06-10 6.38 5,1105
1981 1981-05-03 4.34 1,9405
1982 1982-03-12 6.10 5,0705
1983 1983-05-29 6.54 5,3105
1984 1984-05-25 7.02 6,2005
1985 1985-03-12 7.272 7,2105
1986 1986-04-02 7.02 6,8405
1987 1986-11-02 6.492 5,6505
1988 1988-05-18 4.68 2,3005
1989 1989-05-25 4.08 1,8305
1990 1990-06-11 4.91 3,4205
1991 1991-04-07 4.882 3,3605
1992 1992-08-25 6.942 6,3805
1993 1993-08-28 7.00 8,2005
1994 1994-06-04 5.372 3,8205
1995 1995-03-06 8.10 8,5905
1996 1996-05-17 4.52 2,0405
1997 1997-06-02 5.612 4,6505
1998 1998-05-22 4.802 2,7905
1999 1999-08-04 5.502 4,4005
2000 2000-05-06 4.05 1,5605
2001 2001-05-18 5.45 3,6205
2002 2002-05-19 2.842 3975
2003 2003-09-10 5.28 3,5105
2004 2004-09-20 6.20 4,6205
2005 2005-05-23 7.51 7,5305
2006 2006-05-22 4.59 1,8105
2007 2006-10-07 5.192 2,8205
2008 2008-05-21 5.752 3,9905
2009 2009-05-11 5.49 3,3305
2010 2010-04-17 5.86 3,9805
2011 2011-06-07 5.22 3,0505
2012 2012-04-27 4.22 1,4705
2013 2013-09-23 5.12 2,7305
2014 2014-05-30 5.27 2,9705
2015 2015-06-11 5.74 3,7505
2016 2016-06-06 5.472 3,3205
2017 2017-06-06 5.48 3,3405
2018 2017-10-01 4.54 1,7105
2019 2019-06-09 7.07 6,1705
2020 2020-07-27 5.03 2,2905
2021 2021-05-22 4.292 1,4605
?
  Peak Gage-Height Qualification Codes.
?
  Peak Streamflow Qualification Codes.